Las Pedroneras, Spain
Current Conditions -  °F | °C
As of 5:00 PM on Sunday 21 Dec 2014 (Local Time) from LEAB Reporting Station
Clear Clear  
Wind Chill: 57°   Ceiling: Unl
Heat Index: 57°   Visibility: 6mi
Dew Point: 43°   Wind: 6mph
Humidity: 59%   Direction: 140°SE
Pressure: 30.45"   Gusts: NA
Location:  39.45°N, 2.68°W
Report Text: LEAB 211600Z 14005KT 110V170 CAVOK 14/06 Q1031 NOSIG
Loading
Personal Weather Stations






























Interactive Weather Map New forecast layout! Learn more

10-Day Weather Forecast

Advertisements
Track Severe Weather on mobile